createdAt,value
2022-10-11T00:00:30.384Z,99.79
2022-10-11T00:01:31.924Z,99.90
2022-10-11T00:02:33.356Z,100.00
2022-10-11T00:03:34.678Z,100.00
2022-10-11T00:04:36.026Z,100.00
2022-10-11T00:05:37.514Z,100.00
2022-10-11T00:06:38.858Z,100.00
2022-10-11T00:07:40.193Z,100.00
2022-10-11T00:08:41.520Z,100.00
2022-10-11T00:09:43.051Z,100.00
2022-10-11T00:10:44.395Z,100.00
2022-10-11T00:11:45.733Z,100.00
2022-10-11T00:12:47.097Z,100.00
2022-10-11T00:13:48.419Z,100.00
2022-10-11T00:14:49.755Z,100.00
2022-10-11T00:15:51.106Z,100.00
2022-10-11T00:16:52.579Z,100.00
2022-10-11T00:17:53.919Z,100.00
2022-10-11T00:18:55.255Z,100.00
2022-10-11T00:19:56.609Z,100.00
2022-10-11T00:21:02.166Z,100.00
2022-10-11T00:22:03.524Z,100.00
2022-10-11T00:23:04.854Z,100.00
2022-10-11T00:24:06.516Z,100.00
2022-10-11T00:25:08.660Z,100.00
2022-10-11T00:26:10.632Z,100.00
2022-10-11T00:27:12.003Z,100.00
2022-10-11T00:28:13.385Z,100.00
2022-10-11T00:29:14.788Z,100.00
2022-10-11T00:30:16.189Z,100.00
2022-10-11T00:31:17.597Z,100.00
2022-10-11T00:32:19.125Z,100.00
2022-10-11T00:33:20.692Z,100.00
2022-10-11T00:34:22.034Z,100.00
2022-10-11T00:35:23.374Z,100.00
2022-10-11T00:36:24.845Z,100.00
2022-10-11T00:37:26.197Z,100.00
2022-10-11T00:38:27.554Z,100.00
2022-10-11T00:39:29.183Z,100.00
2022-10-11T00:40:30.657Z,100.00
2022-10-11T00:41:32.006Z,100.00
2022-10-11T00:42:33.356Z,100.00
2022-10-11T00:43:35.213Z,100.00
2022-10-11T00:44:36.554Z,100.00
2022-10-11T00:45:37.850Z,100.00
2022-10-11T00:46:40.278Z,100.00
2022-10-11T00:47:41.629Z,100.00
2022-10-11T00:48:48.625Z,100.00
2022-10-11T00:49:55.107Z,100.00
2022-10-11T00:50:58.243Z,100.00
2022-10-11T00:52:02.970Z,100.00
2022-10-11T00:53:08.950Z,100.00
2022-10-11T00:54:12.518Z,100.00
2022-10-11T00:55:16.724Z,100.00
2022-10-11T00:56:23.873Z,100.00
2022-10-11T00:57:27.881Z,100.00
2022-10-11T00:58:29.446Z,100.00
2022-10-11T00:59:34.479Z,100.00
2022-10-11T01:00:35.935Z,100.00
2022-10-11T01:01:37.405Z,100.00
2022-10-11T01:02:39.669Z,100.00
2022-10-11T01:03:41.296Z,100.00
2022-10-11T01:04:42.689Z,100.00
2022-10-11T01:05:44.230Z,100.00
2022-10-11T01:06:45.680Z,100.00
2022-10-11T01:07:47.623Z,100.00
2022-10-11T01:08:50.193Z,100.00
2022-10-11T01:09:51.532Z,100.00
2022-10-11T01:10:53.084Z,100.00
2022-10-11T01:11:56.256Z,100.00
2022-10-11T01:13:12.803Z,100.00
2022-10-11T01:14:14.104Z,100.00
2022-10-11T01:15:25.540Z,100.00
2022-10-11T01:16:31.817Z,100.00
2022-10-11T01:17:43.967Z,100.00
2022-10-11T01:18:49.570Z,100.00
2022-10-11T01:19:59.822Z,100.00
2022-10-11T01:21:13.262Z,100.00
2022-10-11T01:22:33.341Z,100.00
2022-10-11T01:23:58.811Z,100.00
2022-10-11T01:25:06.034Z,100.00
2022-10-11T01:26:22.423Z,100.00
2022-10-11T01:27:26.767Z,100.00
2022-10-11T01:28:41.250Z,100.00
2022-10-11T01:29:58.060Z,100.00
2022-10-11T01:31:03.447Z,100.00
2022-10-11T01:32:27.736Z,100.00
2022-10-11T01:33:36.995Z,100.00
2022-10-11T01:34:45.653Z,100.00
2022-10-11T01:35:53.388Z,100.00
2022-10-11T01:37:03.797Z,100.00
2022-10-11T01:38:05.104Z,100.00
2022-10-11T01:39:11.816Z,100.00
2022-10-11T01:40:17.566Z,100.00
2022-10-11T01:41:21.975Z,100.00
2022-10-11T01:42:23.866Z,100.00
2022-10-11T01:43:26.339Z,100.00
2022-10-11T01:44:28.666Z,100.00
2022-10-11T01:45:30.467Z,100.00
2022-10-11T01:46:32.900Z,100.00
2022-10-11T01:47:34.240Z,100.00
2022-10-11T01:48:46.654Z,100.00
2022-10-11T01:49:58.143Z,100.00
2022-10-11T01:51:01.847Z,100.00
2022-10-11T01:52:05.172Z,100.00
2022-10-11T01:53:12.986Z,100.00
2022-10-11T01:54:17.304Z,100.00
2022-10-11T01:55:37.869Z,100.00
2022-10-11T01:56:58.340Z,100.00
2022-10-11T01:57:59.654Z,100.00
2022-10-11T01:59:16.347Z,100.00
2022-10-11T02:00:29.047Z,100.00
2022-10-11T02:01:42.557Z,100.00
2022-10-11T02:02:46.951Z,100.00
2022-10-11T02:03:51.767Z,100.00
2022-10-11T02:05:01.426Z,100.00
2022-10-11T02:06:08.183Z,100.00
2022-10-11T02:07:48.404Z,100.00
2022-10-11T02:08:53.922Z,100.00
2022-10-11T02:10:07.040Z,100.00
2022-10-11T02:11:14.044Z,100.00
2022-10-11T02:12:20.678Z,100.00
2022-10-11T02:13:21.971Z,100.00
2022-10-11T02:14:26.500Z,100.00
2022-10-11T02:15:30.056Z,100.00
2022-10-11T02:16:34.453Z,100.00
2022-10-11T02:17:39.655Z,100.00
2022-10-11T02:18:43.352Z,100.00
2022-10-11T02:19:47.601Z,100.00
2022-10-11T02:20:50.261Z,100.00
2022-10-11T02:21:54.371Z,100.00
2022-10-11T02:23:02.414Z,100.00
2022-10-11T02:24:08.225Z,100.00
2022-10-11T02:25:11.811Z,100.00
2022-10-11T02:26:14.418Z,100.00
2022-10-11T02:27:17.856Z,100.00
2022-10-11T02:28:24.282Z,100.00
2022-10-11T02:29:27.745Z,100.00
2022-10-11T02:30:30.521Z,100.00
2022-10-11T02:31:33.390Z,100.00
2022-10-11T02:32:38.151Z,100.00
2022-10-11T02:33:44.228Z,100.00
2022-10-11T02:34:50.956Z,100.00
2022-10-11T02:35:55.920Z,100.00
2022-10-11T02:37:20.533Z,100.00
2022-10-11T02:38:24.953Z,100.00
2022-10-11T02:39:30.097Z,100.00
2022-10-11T02:40:40.031Z,100.00
2022-10-11T02:41:41.641Z,100.00
2022-10-11T02:42:45.469Z,100.00
2022-10-11T02:43:50.563Z,100.00
2022-10-11T02:44:58.412Z,100.00
2022-10-11T02:46:00.999Z,100.00
2022-10-11T02:47:03.746Z,100.00
2022-10-11T02:48:06.755Z,100.00
2022-10-11T02:49:08.340Z,100.00
2022-10-11T02:50:12.834Z,100.00
2022-10-11T02:51:14.745Z,100.00
2022-10-11T02:52:16.068Z,100.00
2022-10-11T02:53:17.411Z,100.00
2022-10-11T02:54:18.747Z,100.00
2022-10-11T02:55:20.236Z,100.00
2022-10-11T02:56:21.588Z,100.00
2022-10-11T02:57:22.931Z,100.00
2022-10-11T02:58:24.579Z,100.00
2022-10-11T02:59:25.913Z,100.00
2022-10-11T03:00:27.315Z,100.00
2022-10-11T03:01:28.684Z,100.00
2022-10-11T03:02:30.073Z,100.00
2022-10-11T03:03:31.415Z,100.00
2022-10-11T03:04:32.807Z,100.00
2022-10-11T03:05:34.169Z,100.00
2022-10-11T03:06:35.486Z,100.00
2022-10-11T03:07:36.860Z,100.00
2022-10-11T03:08:38.229Z,100.00
2022-10-11T03:09:39.557Z,100.00
2022-10-11T03:10:41.271Z,100.00
2022-10-11T03:11:42.606Z,100.00
2022-10-11T03:12:43.995Z,100.00
2022-10-11T03:13:45.399Z,100.00
2022-10-11T03:14:46.736Z,100.00
2022-10-11T03:16:02.403Z,100.00
2022-10-11T03:17:31.153Z,100.00
2022-10-11T03:18:26.204Z,100.00
2022-10-11T03:19:27.631Z,100.00
2022-10-11T03:20:28.980Z,100.00
2022-10-11T03:21:30.532Z,100.00
2022-10-11T03:22:31.911Z,100.00
2022-10-11T03:23:33.268Z,100.00
2022-10-11T03:24:34.586Z,100.00
2022-10-11T03:25:35.959Z,100.00
2022-10-11T03:26:37.293Z,100.00
2022-10-11T03:27:38.661Z,100.00
2022-10-11T03:28:40.113Z,100.00
2022-10-11T03:29:41.467Z,100.00
2022-10-11T03:30:42.824Z,100.00
2022-10-11T03:31:44.245Z,100.00
2022-10-11T03:32:45.943Z,100.00
2022-10-11T03:33:47.408Z,100.00
2022-10-11T03:34:48.763Z,100.00
2022-10-11T03:35:50.096Z,100.00
2022-10-11T03:36:51.454Z,100.00
2022-10-11T03:37:52.788Z,100.00
2022-10-11T03:38:54.161Z,100.00
2022-10-11T03:39:55.496Z,100.00
2022-10-11T03:40:56.824Z,100.00
2022-10-11T03:41:58.157Z,100.00
2022-10-11T03:42:59.499Z,100.00
2022-10-11T03:44:00.845Z,100.00
2022-10-11T03:45:02.270Z,100.00
2022-10-11T03:46:03.980Z,100.00
2022-10-11T03:47:05.770Z,100.00
2022-10-11T03:48:07.110Z,100.00
2022-10-11T03:49:08.445Z,100.00
2022-10-11T03:50:09.811Z,100.00
2022-10-11T03:51:11.165Z,100.00
2022-10-11T03:52:12.493Z,100.00
2022-10-11T03:53:13.861Z,100.00
2022-10-11T03:54:15.226Z,100.00
2022-10-11T03:55:16.641Z,100.00
2022-10-11T03:56:17.979Z,100.00
2022-10-11T03:57:19.408Z,100.00
2022-10-11T03:58:20.878Z,100.00
2022-10-11T03:59:22.198Z,100.00
2022-10-11T04:00:23.616Z,100.00
2022-10-11T04:01:25.078Z,100.00
2022-10-11T04:02:26.423Z,100.00
2022-10-11T04:03:27.792Z,100.00
2022-10-11T04:04:29.137Z,100.00
2022-10-11T04:05:30.655Z,100.00
2022-10-11T04:06:32.067Z,100.00
2022-10-11T04:07:33.437Z,100.00
2022-10-11T04:08:34.783Z,100.00
2022-10-11T04:09:36.140Z,100.00
2022-10-11T04:10:37.469Z,100.00
2022-10-11T04:11:38.798Z,100.00
2022-10-11T04:12:40.131Z,100.00
2022-10-11T04:13:41.455Z,100.00
2022-10-11T04:14:42.792Z,100.00
2022-10-11T04:15:44.114Z,100.00
2022-10-11T04:16:45.459Z,100.00
2022-10-11T04:17:46.812Z,100.00
2022-10-11T04:18:48.140Z,100.00
2022-10-11T04:19:49.473Z,100.00
2022-10-11T04:20:50.834Z,100.00
2022-10-11T04:21:52.160Z,100.00
2022-10-11T04:22:53.472Z,100.00
2022-10-11T04:23:54.801Z,100.00
2022-10-11T04:24:56.134Z,100.00
2022-10-11T04:25:57.465Z,100.00
2022-10-11T04:26:58.800Z,100.00
2022-10-11T04:28:00.120Z,100.00
2022-10-11T04:29:01.472Z,100.00
2022-10-11T04:30:03.533Z,100.00
2022-10-11T04:31:04.946Z,100.00
2022-10-11T04:32:06.298Z,100.00
2022-10-11T04:33:07.655Z,100.00
2022-10-11T04:34:08.987Z,100.00
2022-10-11T04:35:10.482Z,100.00
2022-10-11T04:36:11.794Z,100.00
2022-10-11T04:37:13.210Z,100.00
2022-10-11T04:38:14.660Z,100.00
2022-10-11T04:39:15.993Z,100.00
2022-10-11T04:40:17.369Z,100.00
2022-10-11T04:41:18.697Z,100.00
2022-10-11T04:42:20.035Z,100.00
2022-10-11T04:43:21.371Z,100.00
2022-10-11T04:44:22.694Z,100.00
2022-10-11T04:45:24.027Z,100.00
2022-10-11T04:46:25.728Z,100.00
2022-10-11T04:47:27.043Z,100.00
2022-10-11T04:48:28.370Z,100.00
2022-10-11T04:49:29.782Z,100.00
2022-10-11T04:50:31.101Z,100.00
2022-10-11T04:51:32.448Z,100.00
2022-10-11T04:52:33.846Z,100.00
2022-10-11T04:53:35.201Z,100.00
2022-10-11T04:54:36.519Z,100.00
2022-10-11T04:55:37.835Z,100.00
2022-10-11T04:56:39.215Z,100.00
2022-10-11T04:57:40.538Z,100.00
2022-10-11T04:58:41.895Z,100.00
2022-10-11T04:59:46.685Z,100.00
2022-10-11T05:00:51.274Z,100.00
2022-10-11T05:01:52.647Z,100.00
2022-10-11T05:02:54.030Z,100.00
2022-10-11T05:03:55.345Z,100.00
2022-10-11T05:04:56.695Z,100.00
2022-10-11T05:06:00.885Z,100.00
2022-10-11T05:07:04.616Z,100.00
2022-10-11T05:08:05.981Z,100.00
2022-10-11T05:09:07.323Z,100.00
2022-10-11T05:10:08.997Z,100.00
2022-10-11T05:11:15.963Z,100.00
2022-10-11T05:12:17.612Z,100.00
2022-10-11T05:13:18.978Z,100.00
2022-10-11T05:14:20.355Z,100.00
2022-10-11T05:15:21.707Z,100.00
2022-10-11T05:16:23.434Z,100.00
2022-10-11T05:17:24.768Z,100.00
2022-10-11T05:18:26.425Z,100.00
2022-10-11T05:19:27.805Z,100.00
2022-10-11T05:20:29.153Z,100.00
2022-10-11T05:21:30.943Z,100.00
2022-10-11T05:22:32.269Z,100.00
2022-10-11T05:23:34.770Z,100.00
2022-10-11T05:24:36.086Z,100.00
2022-10-11T05:25:37.496Z,100.00
2022-10-11T05:26:38.830Z,100.00
2022-10-11T05:27:40.173Z,100.00
2022-10-11T05:28:41.692Z,100.00
2022-10-11T05:29:43.094Z,100.00
2022-10-11T05:30:44.431Z,100.00
2022-10-11T05:31:45.751Z,100.00
2022-10-11T05:32:47.089Z,100.00
2022-10-11T05:33:48.476Z,100.00
2022-10-11T05:34:49.798Z,100.00
2022-10-11T05:35:51.152Z,100.00
2022-10-11T05:36:52.470Z,100.00
2022-10-11T05:37:53.799Z,100.00
2022-10-11T05:38:55.144Z,100.00
2022-10-11T05:39:56.497Z,100.00
2022-10-11T05:41:01.954Z,100.00
2022-10-11T05:42:06.591Z,100.00
2022-10-11T05:43:11.123Z,100.00
2022-10-11T05:44:12.461Z,100.00
2022-10-11T05:45:13.783Z,100.00
2022-10-11T05:46:15.139Z,100.00
2022-10-11T05:47:16.490Z,100.00
2022-10-11T05:48:17.865Z,100.00
2022-10-11T05:49:19.192Z,100.00
2022-10-11T05:50:24.122Z,100.00
2022-10-11T05:51:25.888Z,100.00
2022-10-11T05:52:27.226Z,100.00
2022-10-11T05:53:28.896Z,100.00
2022-10-11T05:54:30.580Z,100.00
2022-10-11T05:55:41.652Z,100.00
2022-10-11T05:56:43.011Z,100.00
2022-10-11T05:57:44.372Z,100.00
2022-10-11T05:58:45.737Z,100.00
2022-10-11T05:59:47.064Z,100.00
2022-10-11T06:00:48.435Z,100.00
2022-10-11T06:01:49.893Z,100.00
2022-10-11T06:02:51.293Z,100.00
2022-10-11T06:03:53.112Z,100.00
2022-10-11T06:04:54.446Z,100.00
2022-10-11T06:05:57.250Z,100.00
2022-10-11T06:06:58.836Z,100.00
2022-10-11T06:08:00.224Z,100.00
2022-10-11T06:09:01.575Z,100.00
2022-10-11T06:10:03.606Z,100.00
2022-10-11T06:11:12.370Z,100.00
2022-10-11T06:12:13.727Z,100.00
2022-10-11T06:13:15.086Z,100.00
2022-10-11T06:14:16.467Z,100.00
2022-10-11T06:15:17.994Z,100.00
2022-10-11T06:16:19.564Z,100.00
2022-10-11T06:17:20.907Z,100.00
2022-10-11T06:18:22.284Z,100.00
2022-10-11T06:19:23.644Z,100.00
2022-10-11T06:20:25.476Z,100.00
2022-10-11T06:21:26.811Z,100.00
2022-10-11T06:22:28.147Z,100.00
2022-10-11T06:23:29.589Z,100.00
2022-10-11T06:24:30.943Z,100.00
2022-10-11T06:25:32.272Z,100.00
2022-10-11T06:26:33.644Z,100.00
2022-10-11T06:27:35.024Z,100.00
2022-10-11T06:28:37.602Z,100.00
2022-10-11T06:29:38.990Z,100.00
2022-10-11T06:30:40.333Z,100.00
2022-10-11T06:31:41.642Z,100.00
2022-10-11T06:32:43.002Z,100.00
2022-10-11T06:33:44.491Z,100.00
2022-10-11T06:34:45.854Z,100.00
2022-10-11T06:35:47.207Z,100.00
2022-10-11T06:36:48.560Z,100.00
2022-10-11T06:37:49.892Z,100.00
2022-10-11T06:38:52.272Z,100.00
2022-10-11T06:39:53.622Z,100.00
2022-10-11T06:40:55.044Z,100.00
2022-10-11T06:41:56.370Z,100.00
2022-10-11T06:42:57.721Z,100.00
2022-10-11T06:43:59.099Z,100.00
2022-10-11T06:45:00.420Z,100.00
2022-10-11T06:46:02.048Z,100.00
2022-10-11T06:47:03.634Z,100.00
2022-10-11T06:48:05.119Z,100.00
2022-10-11T06:49:06.523Z,100.00
2022-10-11T06:50:08.074Z,100.00
2022-10-11T06:51:10.098Z,100.00
2022-10-11T06:52:11.439Z,100.00
2022-10-11T06:53:12.789Z,100.00
2022-10-11T06:54:14.161Z,100.00
2022-10-11T06:55:15.566Z,100.00
2022-10-11T06:56:16.990Z,100.00
2022-10-11T06:57:18.338Z,100.00
2022-10-11T06:58:19.716Z,100.00
2022-10-11T06:59:21.165Z,100.00
2022-10-11T07:00:22.505Z,100.00
2022-10-11T07:01:24.204Z,100.00
2022-10-11T07:02:25.568Z,100.00
2022-10-11T07:03:26.929Z,100.00
2022-10-11T07:04:28.325Z,100.00
2022-10-11T07:05:29.671Z,100.00
2022-10-11T07:06:31.546Z,100.00
2022-10-11T07:07:32.964Z,100.00
2022-10-11T07:08:34.725Z,100.00
2022-10-11T07:09:36.063Z,100.00
2022-10-11T07:10:37.416Z,100.00
2022-10-11T07:11:38.800Z,100.00
2022-10-11T07:12:42.917Z,100.00
2022-10-11T07:13:48.689Z,100.00
2022-10-11T07:14:50.062Z,100.00
2022-10-11T07:15:51.406Z,100.00
2022-10-11T07:16:52.747Z,100.00
2022-10-11T07:17:54.087Z,100.00
2022-10-11T07:19:00.284Z,100.00
2022-10-11T07:20:02.202Z,100.00
2022-10-11T07:21:04.767Z,100.00
2022-10-11T07:22:06.108Z,100.00
2022-10-11T07:23:07.419Z,100.00
2022-10-11T07:24:08.820Z,100.00
2022-10-11T07:25:10.194Z,100.00
2022-10-11T07:26:11.633Z,100.00
2022-10-11T07:27:13.011Z,100.00
2022-10-11T07:28:14.406Z,100.00
2022-10-11T07:29:15.960Z,100.00
2022-10-11T07:30:17.339Z,100.00
2022-10-11T07:31:21.178Z,100.00
2022-10-11T07:32:22.533Z,100.00
2022-10-11T07:33:24.014Z,100.00
2022-10-11T07:34:25.440Z,100.00
2022-10-11T07:35:26.816Z,100.00
2022-10-11T07:36:28.145Z,100.00
2022-10-11T07:37:29.518Z,100.00
2022-10-11T07:38:31.604Z,100.00
2022-10-11T07:39:32.957Z,100.00
2022-10-11T07:40:40.229Z,100.00
2022-10-11T07:41:45.649Z,100.00
2022-10-11T07:42:47.453Z,100.00
2022-10-11T07:43:48.949Z,100.00
2022-10-11T07:44:50.318Z,100.00
2022-10-11T07:45:52.980Z,100.00
2022-10-11T07:46:54.338Z,100.00
2022-10-11T07:47:56.111Z,100.00
2022-10-11T07:48:57.466Z,100.00
2022-10-11T07:49:58.816Z,100.00
2022-10-11T07:51:14.436Z,100.00
2022-10-11T07:52:15.775Z,100.00
2022-10-11T07:53:17.167Z,100.00
2022-10-11T07:54:18.500Z,100.00
2022-10-11T07:55:19.814Z,100.00
2022-10-11T07:56:23.695Z,100.00
2022-10-11T07:57:25.032Z,100.00
2022-10-11T07:58:26.411Z,100.00
2022-10-11T07:59:27.796Z,100.00
2022-10-11T08:00:29.127Z,100.00
2022-10-11T08:01:30.950Z,100.00
2022-10-11T08:02:32.459Z,100.00
2022-10-11T08:03:34.023Z,100.00
2022-10-11T08:04:35.371Z,100.00
2022-10-11T08:05:37.989Z,100.00
2022-10-11T08:06:39.476Z,100.00
2022-10-11T08:07:40.914Z,100.00
2022-10-11T08:08:42.299Z,100.00
2022-10-11T08:09:43.618Z,100.00
2022-10-11T08:10:45.021Z,100.00
2022-10-11T08:11:46.403Z,100.00
2022-10-11T08:12:48.232Z,100.00
2022-10-11T08:13:49.740Z,100.00
2022-10-11T08:14:51.066Z,100.00
2022-10-11T08:15:52.960Z,100.00
2022-10-11T08:16:54.356Z,100.00
2022-10-11T08:17:55.712Z,100.00
2022-10-11T08:18:57.323Z,100.00
2022-10-11T08:19:58.726Z,100.00
2022-10-11T08:21:00.081Z,100.00
2022-10-11T08:22:01.441Z,100.00
2022-10-11T08:23:02.889Z,100.00
2022-10-11T08:24:05.176Z,100.00
2022-10-11T08:25:06.643Z,100.00
2022-10-11T08:26:08.471Z,100.00
2022-10-11T08:27:10.130Z,100.00
2022-10-11T08:28:11.850Z,100.00
2022-10-11T08:29:13.244Z,100.00
2022-10-11T08:30:14.579Z,100.00
2022-10-11T08:31:16.309Z,100.00
2022-10-11T08:32:17.694Z,100.00
2022-10-11T08:33:19.925Z,100.00
2022-10-11T08:34:21.279Z,100.00
2022-10-11T08:35:22.832Z,100.00
2022-10-11T08:36:24.348Z,100.00
2022-10-11T08:37:25.730Z,100.00
2022-10-11T08:38:27.105Z,100.00
2022-10-11T08:39:28.516Z,100.00
2022-10-11T08:40:34.943Z,100.00
2022-10-11T08:41:36.653Z,100.00
2022-10-11T08:42:51.877Z,100.00
2022-10-11T08:44:05.514Z,100.00
2022-10-11T08:45:11.435Z,100.00
2022-10-11T08:46:15.071Z,100.00
2022-10-11T08:47:25.712Z,100.00
2022-10-11T08:48:33.256Z,100.00
2022-10-11T08:49:34.989Z,100.00
2022-10-11T08:50:38.145Z,100.00
2022-10-11T08:51:42.366Z,100.00
2022-10-11T08:52:50.606Z,100.00
2022-10-11T08:53:54.166Z,100.00
2022-10-11T08:55:04.494Z,100.00
2022-10-11T08:56:06.760Z,100.00
2022-10-11T08:57:12.315Z,100.00
2022-10-11T08:58:16.173Z,100.00
2022-10-11T08:59:38.834Z,100.00
2022-10-11T09:00:40.856Z,100.00
2022-10-11T09:02:05.258Z,100.00
2022-10-11T09:03:25.420Z,100.00
2022-10-11T09:04:26.811Z,100.00
2022-10-11T09:05:33.104Z,100.00
2022-10-11T09:06:53.224Z,100.00
2022-10-11T09:07:54.523Z,100.00
2022-10-11T09:09:18.486Z,100.00
2022-10-11T09:10:31.603Z,100.00
2022-10-11T09:11:54.425Z,100.00
2022-10-11T09:13:14.694Z,100.00
2022-10-11T09:14:22.058Z,100.00
2022-10-11T09:15:23.444Z,100.00
2022-10-11T09:16:32.484Z,100.00
2022-10-11T09:17:43.022Z,100.00
2022-10-11T09:19:03.183Z,100.00
2022-10-11T09:20:24.817Z,100.00
2022-10-11T09:21:41.708Z,100.00
2022-10-11T09:22:54.777Z,100.00
2022-10-11T09:23:59.108Z,100.00
2022-10-11T09:25:10.566Z,100.00
2022-10-11T09:26:16.990Z,100.00
2022-10-11T09:27:49.884Z,100.00
2022-10-11T09:29:01.606Z,100.00
2022-10-11T09:30:06.689Z,100.00
2022-10-11T09:31:09.690Z,100.00
2022-10-11T09:32:15.503Z,100.00
2022-10-11T09:33:21.456Z,100.00
2022-10-11T09:34:25.034Z,100.00
2022-10-11T09:35:28.208Z,100.00
2022-10-11T09:36:46.770Z,100.00
2022-10-11T09:37:48.105Z,100.00
2022-10-11T09:38:54.301Z,100.00
2022-10-11T09:40:01.142Z,100.00
2022-10-11T09:41:21.004Z,100.00
2022-10-11T09:42:22.404Z,100.00
2022-10-11T09:43:23.782Z,100.00
2022-10-11T09:44:29.847Z,100.00
2022-10-11T09:45:31.255Z,100.00
2022-10-11T09:46:36.549Z,100.00
2022-10-11T09:47:37.925Z,100.00
2022-10-11T09:48:41.132Z,100.00
2022-10-11T09:50:02.097Z,100.00
2022-10-11T09:51:06.177Z,100.00
2022-10-11T09:52:14.675Z,100.00
2022-10-11T09:53:16.026Z,100.00
2022-10-11T09:54:18.236Z,100.00
2022-10-11T09:55:30.440Z,100.00
2022-10-11T09:56:33.407Z,100.00
2022-10-11T09:57:37.164Z,100.00
2022-10-11T09:58:38.543Z,100.00
2022-10-11T09:59:39.909Z,100.00
2022-10-11T10:00:41.278Z,100.00
2022-10-11T10:01:42.653Z,100.00
2022-10-11T10:02:51.456Z,100.00
2022-10-11T10:04:07.096Z,100.00
2022-10-11T10:05:08.402Z,100.00
2022-10-11T10:06:09.747Z,100.00
2022-10-11T10:07:11.654Z,100.00
2022-10-11T10:08:15.720Z,100.00
2022-10-11T10:09:27.737Z,100.00
2022-10-11T10:10:37.032Z,100.00
2022-10-11T10:11:38.408Z,100.00
2022-10-11T10:12:40.367Z,100.00
2022-10-11T10:13:50.720Z,100.00
2022-10-11T10:15:13.984Z,100.00
2022-10-11T10:16:19.803Z,100.00
2022-10-11T10:17:21.296Z,100.00
2022-10-11T10:18:42.892Z,100.00
2022-10-11T10:19:49.188Z,100.00
2022-10-11T10:20:52.300Z,100.00
2022-10-11T10:21:54.960Z,100.00
2022-10-11T10:22:56.427Z,100.00
2022-10-11T10:23:59.027Z,100.00
2022-10-11T10:25:02.548Z,100.00
2022-10-11T10:26:09.860Z,100.00
2022-10-11T10:27:14.201Z,100.00
2022-10-11T10:28:17.677Z,100.00
2022-10-11T10:29:19.043Z,100.00
2022-10-11T10:30:20.455Z,100.00
2022-10-11T10:31:23.856Z,100.00
2022-10-11T10:32:28.226Z,100.00
2022-10-11T10:33:38.738Z,100.00
2022-10-11T10:34:51.969Z,95.48
2022-10-11T10:35:53.273Z,92.12
2022-10-11T10:37:03.715Z,91.16
2022-10-11T10:38:08.199Z,91.79
2022-10-11T10:39:12.558Z,92.67
2022-10-11T10:40:21.432Z,93.81
2022-10-11T10:41:22.757Z,91.63
2022-10-11T10:42:24.268Z,89.54
2022-10-11T10:43:26.612Z,86.89
2022-10-11T10:44:28.015Z,84.75
2022-10-11T10:45:39.429Z,86.07
2022-10-11T10:46:49.506Z,83.29
2022-10-11T10:48:11.636Z,81.48
2022-10-11T10:50:54.681Z,82.17
2022-10-11T10:52:02.557Z,82.89
2022-10-11T10:53:22.441Z,80.46
2022-10-11T10:54:36.025Z,80.10
2022-10-11T10:55:42.103Z,79.94
2022-10-11T10:56:55.593Z,78.91
2022-10-11T10:58:15.149Z,77.82
2022-10-11T10:59:19.216Z,77.39
2022-10-11T11:00:21.950Z,79.13
2022-10-11T11:01:26.310Z,80.05
2022-10-11T11:02:41.686Z,79.40
2022-10-11T11:03:47.798Z,78.95
2022-10-11T11:05:15.390Z,78.10
2022-10-11T11:06:23.595Z,77.59
2022-10-11T11:07:24.918Z,76.48
2022-10-11T11:08:32.280Z,77.64
2022-10-11T11:09:44.017Z,76.69
2022-10-11T11:10:49.750Z,76.33
2022-10-11T11:12:02.907Z,76.65
2022-10-11T11:13:18.187Z,75.71
2022-10-11T11:14:26.531Z,77.40
2022-10-11T11:15:40.801Z,79.30
2022-10-11T11:16:48.449Z,78.14
2022-10-11T11:18:02.221Z,79.08
2022-10-11T11:19:12.518Z,78.35
2022-10-11T11:20:27.947Z,78.67
2022-10-11T11:21:41.475Z,79.84
2022-10-11T11:22:59.306Z,79.77
2022-10-11T11:24:18.758Z,79.11
2022-10-11T11:25:26.305Z,79.82
2022-10-11T11:26:35.242Z,79.38
2022-10-11T11:27:55.318Z,79.80
2022-10-11T11:29:08.674Z,80.15
2022-10-11T11:30:13.523Z,81.13
2022-10-11T11:31:20.974Z,81.61
2022-10-11T11:32:57.983Z,80.97
2022-10-11T11:34:19.773Z,80.30
2022-10-11T11:35:30.240Z,79.38
2022-10-11T11:36:44.656Z,79.54
2022-10-11T11:37:47.555Z,80.10
2022-10-11T11:38:52.414Z,80.16
2022-10-11T11:40:07.640Z,80.19
2022-10-11T11:41:29.227Z,76.88
2022-10-11T11:42:41.876Z,75.38
2022-10-11T11:43:58.586Z,72.83
2022-10-11T11:45:03.294Z,70.18
2022-10-11T11:46:17.189Z,69.62
2022-10-11T11:47:23.030Z,70.18
2022-10-11T11:48:26.253Z,71.62
2022-10-11T11:49:35.896Z,72.21
2022-10-11T11:50:38.542Z,71.59
2022-10-11T11:51:42.758Z,71.99
2022-10-11T11:52:46.541Z,72.76
2022-10-11T11:54:07.812Z,72.40
2022-10-11T11:55:17.960Z,72.56
2022-10-11T11:56:26.901Z,71.75
2022-10-11T11:57:37.265Z,72.16
2022-10-11T11:58:42.994Z,71.99
2022-10-11T11:59:51.309Z,71.77
2022-10-11T12:01:11.477Z,71.39
2022-10-11T12:02:12.859Z,72.44
2022-10-11T12:03:18.893Z,72.85
2022-10-11T12:04:23.260Z,75.04
2022-10-11T12:05:27.306Z,75.01
2022-10-11T12:06:31.197Z,74.15
2022-10-11T12:07:46.188Z,74.01
2022-10-11T12:08:55.009Z,75.78
2022-10-11T12:10:16.934Z,75.30
2022-10-11T12:11:20.095Z,75.22
2022-10-11T12:12:29.596Z,75.18
2022-10-11T12:13:35.201Z,75.53
2022-10-11T12:14:38.525Z,72.76
2022-10-11T12:15:39.900Z,71.73
2022-10-11T12:17:01.163Z,70.72
2022-10-11T12:18:04.613Z,70.57
2022-10-11T12:19:05.966Z,70.72
2022-10-11T12:20:26.781Z,69.93
2022-10-11T12:21:32.788Z,70.18
2022-10-11T12:22:34.099Z,70.51
2022-10-11T12:23:44.137Z,71.41
2022-10-11T12:24:57.630Z,72.73
2022-10-11T12:26:17.769Z,70.77
2022-10-11T12:27:37.594Z,71.63
2022-10-11T12:28:42.075Z,69.42
2022-10-11T12:29:43.471Z,67.36
2022-10-11T12:30:44.792Z,67.55
2022-10-11T12:31:47.501Z,69.05
2022-10-11T12:32:50.937Z,69.79
2022-10-11T12:34:01.195Z,71.36
2022-10-11T12:35:21.137Z,71.83
2022-10-11T12:36:28.235Z,72.07
2022-10-11T12:37:32.369Z,72.47
2022-10-11T12:38:35.406Z,72.13
2022-10-11T12:39:42.420Z,72.70
2022-10-11T12:40:44.524Z,71.92
2022-10-11T12:41:48.907Z,72.04
2022-10-11T12:43:10.121Z,71.73
2022-10-11T12:44:25.010Z,72.38
2022-10-11T12:45:30.073Z,73.07
2022-10-11T12:46:31.397Z,72.29
2022-10-11T12:47:52.987Z,72.77
2022-10-11T12:48:58.227Z,72.79
2022-10-11T12:50:11.540Z,73.63
2022-10-11T12:51:27.187Z,73.35
2022-10-11T12:52:36.405Z,73.29
2022-10-11T12:54:14.742Z,72.27
2022-10-11T12:55:29.778Z,73.05
2022-10-11T12:56:58.674Z,73.59
2022-10-11T12:58:18.852Z,74.51
2022-10-11T12:59:22.253Z,74.52
2022-10-11T13:00:28.176Z,74.21
2022-10-11T13:01:37.133Z,73.77
2022-10-11T13:02:41.569Z,75.47
2022-10-11T13:03:44.993Z,75.86
2022-10-11T13:04:46.384Z,76.27
2022-10-11T13:05:52.458Z,75.39
2022-10-11T13:07:04.407Z,75.31
2022-10-11T13:08:11.391Z,75.16
2022-10-11T13:09:28.533Z,75.33
2022-10-11T13:10:36.579Z,76.38
2022-10-11T13:11:40.305Z,77.09
2022-10-11T13:12:43.355Z,76.50
2022-10-11T13:13:48.265Z,76.94
2022-10-11T13:14:56.745Z,77.07
2022-10-11T13:16:01.141Z,76.93
2022-10-11T13:17:02.450Z,77.53
2022-10-11T13:18:03.855Z,77.14
2022-10-11T13:19:05.766Z,77.03
2022-10-11T13:20:13.098Z,76.77
2022-10-11T13:21:34.282Z,77.50
2022-10-11T13:22:38.368Z,77.63
2022-10-11T13:23:39.722Z,77.50
2022-10-11T13:24:41.126Z,78.02
2022-10-11T13:25:42.518Z,78.39
2022-10-11T13:26:44.952Z,78.87
2022-10-11T13:27:47.965Z,78.95
2022-10-11T13:28:49.426Z,77.35
2022-10-11T13:29:52.965Z,77.26
2022-10-11T13:30:56.021Z,78.29
2022-10-11T13:31:57.528Z,77.89
2022-10-11T13:32:59.739Z,77.54
2022-10-11T13:34:01.120Z,77.67
2022-10-11T13:35:06.975Z,77.96
2022-10-11T13:36:12.749Z,78.53